sensor_id;sensor_type;location;lat;lon;timestamp;pressure;altitude;pressure_sealevel;temperature;humidity
69766;BME280;57039;48.014;21.384;2023-07-22T00:00:05;100117.31;;;19.34;100.00
69766;BME280;57039;48.014;21.384;2023-07-22T00:01:10;100117.31;;;19.34;100.00
69766;BME280;57039;48.014;21.384;2023-07-22T00:02:13;100109.50;;;19.33;100.00
69766;BME280;57039;48.014;21.384;2023-07-22T00:03:16;100105.16;;;19.32;100.00
69766;BME280;57039;48.014;21.384;2023-07-22T00:04:19;100108.50;;;19.34;100.00
69766;BME280;57039;48.014;21.384;2023-07-22T00:05:21;100110.34;;;19.33;100.00
69766;BME280;57039;48.014;21.384;2023-07-22T00:06:26;100099.28;;;19.28;100.00
69766;BME280;57039;48.014;21.384;2023-07-22T00:07:29;100103.62;;;19.29;100.00
69766;BME280;57039;48.014;21.384;2023-07-22T00:08:35;100109.62;;;19.31;100.00
69766;BME280;57039;48.014;21.384;2023-07-22T00:09:39;100112.00;;;19.34;100.00
69766;BME280;57039;48.014;21.384;2023-07-22T00:10:44;100106.66;;;19.34;100.00
69766;BME280;57039;48.014;21.384;2023-07-22T00:11:49;100107.19;;;19.38;100.00
69766;BME280;57039;48.014;21.384;2023-07-22T00:12:52;100097.31;;;19.30;100.00
69766;BME280;57039;48.014;21.384;2023-07-22T00:13:55;100112.38;;;19.39;100.00
69766;BME280;57039;48.014;21.384;2023-07-22T00:14:57;100111.37;;;19.41;100.00
69766;BME280;57039;48.014;21.384;2023-07-22T00:16:00;100113.22;;;19.40;100.00
69766;BME280;57039;48.014;21.384;2023-07-22T00:17:07;100112.91;;;19.43;100.00
69766;BME280;57039;48.014;21.384;2023-07-22T00:18:10;100105.47;;;19.47;100.00
69766;BME280;57039;48.014;21.384;2023-07-22T00:19:13;100104.63;;;19.46;100.00
69766;BME280;57039;48.014;21.384;2023-07-22T00:20:17;100100.00;;;19.48;100.00
69766;BME280;57039;48.014;21.384;2023-07-22T00:21:19;100100.66;;;19.50;100.00
69766;BME280;57039;48.014;21.384;2023-07-22T00:22:22;100105.75;;;19.44;100.00
69766;BME280;57039;48.014;21.384;2023-07-22T00:23:25;100100.44;;;19.44;100.00
69766;BME280;57039;48.014;21.384;2023-07-22T00:24:28;100107.06;;;19.39;100.00
69766;BME280;57039;48.014;21.384;2023-07-22T00:25:31;100115.03;;;19.39;100.00
69766;BME280;57039;48.014;21.384;2023-07-22T00:26:34;100108.59;;;19.42;100.00
69766;BME280;57039;48.014;21.384;2023-07-22T00:27:38;100112.09;;;19.43;100.00
69766;BME280;57039;48.014;21.384;2023-07-22T00:28:41;100105.75;;;19.44;100.00
69766;BME280;57039;48.014;21.384;2023-07-22T00:29:45;100110.63;;;19.48;100.00
69766;BME280;57039;48.014;21.384;2023-07-22T00:30:48;100109.03;;;19.55;100.00
69766;BME280;57039;48.014;21.384;2023-07-22T00:31:56;100103.19;;;19.52;100.00
69766;BME280;57039;48.014;21.384;2023-07-22T00:32:58;100108.72;;;19.58;100.00
69766;BME280;57039;48.014;21.384;2023-07-22T00:34:01;100103.78;;;19.64;100.00
69766;BME280;57039;48.014;21.384;2023-07-22T00:35:05;100101.97;;;19.64;100.00
69766;BME280;57039;48.014;21.384;2023-07-22T00:36:08;100099.47;;;19.62;100.00
69766;BME280;57039;48.014;21.384;2023-07-22T00:37:11;100107.28;;;19.64;100.00
69766;BME280;57039;48.014;21.384;2023-07-22T00:38:13;100108.84;;;19.67;100.00
69766;BME280;57039;48.014;21.384;2023-07-22T00:39:16;100104.72;;;19.72;100.00
69766;BME280;57039;48.014;21.384;2023-07-22T00:40:19;100109.88;;;19.74;100.00
69766;BME280;57039;48.014;21.384;2023-07-22T00:41:22;100092.19;;;19.65;100.00
69766;BME280;57039;48.014;21.384;2023-07-22T00:42:25;100106.25;;;19.75;100.00
69766;BME280;57039;48.014;21.384;2023-07-22T00:43:27;100096.22;;;19.69;100.00
69766;BME280;57039;48.014;21.384;2023-07-22T00:44:30;100112.84;;;19.71;100.00
69766;BME280;57039;48.014;21.384;2023-07-22T00:45:33;100114.00;;;19.68;100.00
69766;BME280;57039;48.014;21.384;2023-07-22T00:46:36;100111.50;;;19.67;100.00
69766;BME280;57039;48.014;21.384;2023-07-22T00:47:39;100101.44;;;19.60;100.00
69766;BME280;57039;48.014;21.384;2023-07-22T00:48:42;100108.19;;;19.55;100.00
69766;BME280;57039;48.014;21.384;2023-07-22T00:49:47;100109.41;;;19.60;100.00
69766;BME280;57039;48.014;21.384;2023-07-22T00:50:51;100110.94;;;19.63;100.00
69766;BME280;57039;48.014;21.384;2023-07-22T00:51:56;100106.19;;;19.67;100.00
69766;BME280;57039;48.014;21.384;2023-07-22T00:53:01;100106.00;;;19.68;100.00
69766;BME280;57039;48.014;21.384;2023-07-22T00:54:04;100106.41;;;19.73;100.00
69766;BME280;57039;48.014;21.384;2023-07-22T00:55:08;100099.94;;;19.76;100.00
69766;BME280;57039;48.014;21.384;2023-07-22T00:56:11;100103.28;;;19.78;100.00
69766;BME280;57039;48.014;21.384;2023-07-22T00:57:15;100104.13;;;19.78;100.00
69766;BME280;57039;48.014;21.384;2023-07-22T00:58:20;100098.78;;;19.78;100.00
69766;BME280;57039;48.014;21.384;2023-07-22T00:59:24;100095.44;;;19.76;100.00
69766;BME280;57039;48.014;21.384;2023-07-22T01:00:27;100098.28;;;19.75;100.00
69766;BME280;57039;48.014;21.384;2023-07-22T01:01:30;100088.44;;;19.75;100.00
69766;BME280;57039;48.014;21.384;2023-07-22T01:02:33;100088.28;;;19.77;100.00
69766;BME280;57039;48.014;21.384;2023-07-22T01:03:37;100081.47;;;19.74;100.00
69766;BME280;57039;48.014;21.384;2023-07-22T01:04:40;100085.78;;;19.75;100.00
69766;BME280;57039;48.014;21.384;2023-07-22T01:05:43;100076.59;;;19.70;100.00
69766;BME280;57039;48.014;21.384;2023-07-22T01:06:46;100077.59;;;19.69;100.00
69766;BME280;57039;48.014;21.384;2023-07-22T01:07:50;100082.34;;;19.65;100.00
69766;BME280;57039;48.014;21.384;2023-07-22T01:08:53;100079.00;;;19.63;100.00
69766;BME280;57039;48.014;21.384;2023-07-22T01:09:56;100049.22;;;19.42;100.00
69766;BME280;57039;48.014;21.384;2023-07-22T01:11:01;100081.91;;;19.52;100.00
69766;BME280;57039;48.014;21.384;2023-07-22T01:12:04;100088.03;;;19.52;100.00
69766;BME280;57039;48.014;21.384;2023-07-22T01:13:11;100086.38;;;19.51;100.00
69766;BME280;57039;48.014;21.384;2023-07-22T01:14:13;100101.66;;;19.49;100.00
69766;BME280;57039;48.014;21.384;2023-07-22T01:15:16;100104.63;;;19.46;100.00
69766;BME280;57039;48.014;21.384;2023-07-22T01:16:20;100077.31;;;19.26;100.00
69766;BME280;57039;48.014;21.384;2023-07-22T01:17:23;100109.56;;;19.41;100.00
69766;BME280;57039;48.014;21.384;2023-07-22T01:18:27;100105.41;;;19.38;100.00
69766;BME280;57039;48.014;21.384;2023-07-22T01:19:30;100106.06;;;19.41;100.00
69766;BME280;57039;48.014;21.384;2023-07-22T01:20:34;100104.72;;;19.36;100.00
69766;BME280;57039;48.014;21.384;2023-07-22T01:21:38;100110.34;;;19.33;100.00
69766;BME280;57039;48.014;21.384;2023-07-22T01:23:47;100099.00;;;19.31;100.00
69766;BME280;57039;48.014;21.384;2023-07-22T01:24:50;100105.84;;;19.34;100.00
69766;BME280;57039;48.014;21.384;2023-07-22T01:25:53;100084.47;;;19.26;100.00
69766;BME280;57039;48.014;21.384;2023-07-22T01:26:57;100098.56;;;19.36;100.00
69766;BME280;57039;48.014;21.384;2023-07-22T01:28:00;100105.97;;;19.32;100.00
69766;BME280;57039;48.014;21.384;2023-07-22T01:29:04;100106.66;;;19.34;100.00
69766;BME280;57039;48.014;21.384;2023-07-22T01:30:07;100102.66;;;19.30;100.00
69766;BME280;57039;48.014;21.384;2023-07-22T01:31:12;100102.78;;;19.29;100.00
69766;BME280;57039;48.014;21.384;2023-07-22T01:32:15;100106.97;;;19.31;100.00
69766;BME280;57039;48.014;21.384;2023-07-22T01:33:20;100106.66;;;19.34;100.00
69766;BME280;57039;48.014;21.384;2023-07-22T01:34:23;100062.88;;;19.11;100.00
69766;BME280;57039;48.014;21.384;2023-07-22T01:35:27;100103.56;;;19.39;100.00
69766;BME280;57039;48.014;21.384;2023-07-22T01:36:30;100101.03;;;19.37;100.00
69766;BME280;57039;48.014;21.384;2023-07-22T01:37:34;100103.72;;;19.37;100.00
69766;BME280;57039;48.014;21.384;2023-07-22T01:38:37;100102.88;;;19.37;100.00
69766;BME280;57039;48.014;21.384;2023-07-22T01:39:39;100111.56;;;19.39;100.00
69766;BME280;57039;48.014;21.384;2023-07-22T01:40:42;100106.66;;;19.34;100.00
69766;BME280;57039;48.014;21.384;2023-07-22T01:41:45;100113.12;;;19.32;100.00
69766;BME280;57039;48.014;21.384;2023-07-22T01:42:48;100114.25;;;19.29;100.00
69766;BME280;57039;48.014;21.384;2023-07-22T01:43:51;100074.94;;;19.05;100.00
69766;BME280;57039;48.014;21.384;2023-07-22T01:44:54;100110.94;;;19.27;100.00
69766;BME280;57039;48.014;21.384;2023-07-22T01:45:56;100109.41;;;19.25;100.00
69766;BME280;57039;48.014;21.384;2023-07-22T01:47:02;100119.50;;;19.21;100.00
69766;BME280;57039;48.014;21.384;2023-07-22T01:48:05;100116.84;;;19.21;100.00
69766;BME280;57039;48.014;21.384;2023-07-22T01:49:12;100080.34;;;18.96;100.00
69766;BME280;57039;48.014;21.384;2023-07-22T01:50:15;100113.09;;;19.14;100.00
69766;BME280;57039;48.014;21.384;2023-07-22T01:51:18;100112.28;;;19.13;100.00
69766;BME280;57039;48.014;21.384;2023-07-22T01:52:21;100109.75;;;18.94;100.00
69766;BME280;57039;48.014;21.384;2023-07-22T01:53:24;100110.63;;;18.85;100.00
69766;BME280;57039;48.014;21.384;2023-07-22T01:54:26;100120.28;;;18.86;100.00
69766;BME280;57039;48.014;21.384;2023-07-22T01:55:29;100121.84;;;18.79;100.00
69766;BME280;57039;48.014;21.384;2023-07-22T01:56:32;100119.44;;;18.85;100.00
69766;BME280;57039;48.014;21.384;2023-07-22T01:57:35;100126.94;;;18.90;100.00
69766;BME280;57039;48.014;21.384;2023-07-22T01:58:38;100123.47;;;18.89;100.00
69766;BME280;57039;48.014;21.384;2023-07-22T01:59:40;100116.47;;;18.88;100.00
69766;BME280;57039;48.014;21.384;2023-07-22T02:00:43;100117.44;;;18.87;100.00
69766;BME280;57039;48.014;21.384;2023-07-22T02:01:46;100126.53;;;18.95;100.00
69766;BME280;57039;48.014;21.384;2023-07-22T02:02:50;100125.69;;;18.94;100.00
69766;BME280;57039;48.014;21.384;2023-07-22T02:03:53;100130.72;;;18.97;100.00
69766;BME280;57039;48.014;21.384;2023-07-22T02:04:55;100122.56;;;18.99;100.00
69766;BME280;57039;48.014;21.384;2023-07-22T02:06:05;100130.56;;;18.99;100.00
69766;BME280;57039;48.014;21.384;2023-07-22T02:07:08;100135.75;;;18.90;100.00
69766;BME280;57039;48.014;21.384;2023-07-22T02:08:11;100135.50;;;18.84;100.00
69766;BME280;57039;48.014;21.384;2023-07-22T02:09:14;100136.06;;;18.87;100.00
69766;BME280;57039;48.014;21.384;2023-07-22T02:10:16;100132.03;;;18.83;100.00
69766;BME280;57039;48.014;21.384;2023-07-22T02:11:19;100144.31;;;18.84;100.00
69766;BME280;57039;48.014;21.384;2023-07-22T02:12:22;100127.53;;;18.84;100.00
69766;BME280;57039;48.014;21.384;2023-07-22T02:13:25;100127.78;;;18.90;100.00
69766;BME280;57039;48.014;21.384;2023-07-22T02:14:28;100122.19;;;18.93;100.00
69766;BME280;57039;48.014;21.384;2023-07-22T02:15:32;100104.72;;;18.91;100.00
69766;BME280;57039;48.014;21.384;2023-07-22T02:16:36;100118.78;;;19.01;100.00
69766;BME280;57039;48.014;21.384;2023-07-22T02:17:42;100116.94;;;19.02;100.00
69766;BME280;57039;48.014;21.384;2023-07-22T02:18:45;100117.94;;;19.01;100.00
69766;BME280;57039;48.014;21.384;2023-07-22T02:19:47;100120.06;;;18.97;100.00
69766;BME280;57039;48.014;21.384;2023-07-22T02:20:50;100124.28;;;18.90;100.00
69766;BME280;57039;48.014;21.384;2023-07-22T02:21:53;100122.09;;;18.85;100.00
69766;BME280;57039;48.014;21.384;2023-07-22T02:22:56;100130.38;;;18.82;100.00
69766;BME280;57039;48.014;21.384;2023-07-22T02:23:58;100128.84;;;18.80;100.00
69766;BME280;57039;48.014;21.384;2023-07-22T02:25:01;100122.69;;;18.79;100.00
69766;BME280;57039;48.014;21.384;2023-07-22T02:26:04;100127.84;;;18.81;100.00
69766;BME280;57039;48.014;21.384;2023-07-22T02:27:07;100130.66;;;18.79;100.00
69766;BME280;57039;48.014;21.384;2023-07-22T02:28:12;100136.09;;;18.78;100.00
69766;BME280;57039;48.014;21.384;2023-07-22T02:29:15;100138.09;;;18.76;100.00
69766;BME280;57039;48.014;21.384;2023-07-22T02:30:17;100142.97;;;18.70;100.00
69766;BME280;57039;48.014;21.384;2023-07-22T02:31:20;100106.94;;;18.48;100.00
69766;BME280;57039;48.014;21.384;2023-07-22T02:32:25;100152.91;;;18.68;100.00
69766;BME280;57039;48.014;21.384;2023-07-22T02:33:27;100150.41;;;18.67;100.00
69766;BME280;57039;48.014;21.384;2023-07-22T02:34:30;100091.94;;;18.30;100.00
69766;BME280;57039;48.014;21.384;2023-07-22T02:35:33;100156.84;;;18.64;100.00
69766;BME280;57039;48.014;21.384;2023-07-22T02:36:36;100153.34;;;18.64;100.00
69766;BME280;57039;48.014;21.384;2023-07-22T02:37:38;100156.13;;;18.62;100.00
69766;BME280;57039;48.014;21.384;2023-07-22T02:38:42;100160.47;;;18.63;100.00
69766;BME280;57039;48.014;21.384;2023-07-22T02:39:44;100165.78;;;18.63;100.00
69766;BME280;57039;48.014;21.384;2023-07-22T02:40:47;100166.06;;;18.60;100.00
69766;BME280;57039;48.014;21.384;2023-07-22T02:41:50;100173.91;;;18.62;100.00
69766;BME280;57039;48.014;21.384;2023-07-22T02:42:53;100177.28;;;18.64;100.00
69766;BME280;57039;48.014;21.384;2023-07-22T02:43:55;100179.75;;;18.65;100.00
69766;BME280;57039;48.014;21.384;2023-07-22T02:44:58;100181.44;;;18.66;100.00
69766;BME280;57039;48.014;21.384;2023-07-22T02:46:02;100179.06;;;18.63;100.00
69766;BME280;57039;48.014;21.384;2023-07-22T02:47:05;100190.56;;;18.64;100.00
69766;BME280;57039;48.014;21.384;2023-07-22T02:48:08;100186.19;;;18.63;100.00
69766;BME280;57039;48.014;21.384;2023-07-22T02:49:11;100187.03;;;18.63;100.00
69766;BME280;57039;48.014;21.384;2023-07-22T02:50:14;100195.16;;;18.62;100.00
69766;BME280;57039;48.014;21.384;2023-07-22T02:51:17;100199.78;;;18.60;100.00
69766;BME280;57039;48.014;21.384;2023-07-22T02:52:20;100194.34;;;18.61;100.00
69766;BME280;57039;48.014;21.384;2023-07-22T02:53:22;100192.34;;;18.63;100.00
69766;BME280;57039;48.014;21.384;2023-07-22T02:54:25;100197.13;;;18.60;100.00
69766;BME280;57039;48.014;21.384;2023-07-22T02:55:28;100196.28;;;18.59;100.00
69766;BME280;57039;48.014;21.384;2023-07-22T02:56:30;100176.59;;;18.42;100.00
69766;BME280;57039;48.014;21.384;2023-07-22T02:57:34;100201.06;;;18.56;100.00
69766;BME280;57039;48.014;21.384;2023-07-22T02:58:37;100211.25;;;18.60;100.00
69766;BME280;57039;48.014;21.384;2023-07-22T02:59:39;100218.62;;;18.66;100.00
69766;BME280;57039;48.014;21.384;2023-07-22T03:00:42;100217.81;;;18.66;100.00
69766;BME280;57039;48.014;21.384;2023-07-22T03:01:45;100215.84;;;18.68;100.00
69766;BME280;57039;48.014;21.384;2023-07-22T03:02:49;100214.03;;;18.68;100.00
69766;BME280;57039;48.014;21.384;2023-07-22T03:03:53;100223.66;;;18.69;100.00
69766;BME280;57039;48.014;21.384;2023-07-22T03:04:56;100194.62;;;18.48;100.00
69766;BME280;57039;48.014;21.384;2023-07-22T03:05:59;100222.16;;;18.67;100.00
69766;BME280;57039;48.014;21.384;2023-07-22T03:07:03;100222.00;;;18.68;100.00
69766;BME280;57039;48.014;21.384;2023-07-22T03:08:06;100214.03;;;18.68;100.00
69766;BME280;57039;48.014;21.384;2023-07-22T03:09:09;100220.34;;;18.67;100.00
69766;BME280;57039;48.014;21.384;2023-07-22T03:10:13;100225.50;;;18.69;100.00
69766;BME280;57039;48.014;21.384;2023-07-22T03:11:16;100226.31;;;18.69;100.00
69766;BME280;57039;48.014;21.384;2023-07-22T03:12:19;100239.91;;;18.66;100.00
69766;BME280;57039;48.014;21.384;2023-07-22T03:13:22;100232.09;;;18.65;100.00
69766;BME280;57039;48.014;21.384;2023-07-22T03:14:24;100224.81;;;18.67;100.00
69766;BME280;57039;48.014;21.384;2023-07-22T03:15:29;100235.28;;;18.68;100.00
69766;BME280;57039;48.014;21.384;2023-07-22T03:16:32;100235.16;;;18.60;100.00
69766;BME280;57039;48.014;21.384;2023-07-22T03:17:35;100233.19;;;18.62;100.00
69766;BME280;57039;48.014;21.384;2023-07-22T03:18:39;100227.47;;;18.57;100.00
69766;BME280;57039;48.014;21.384;2023-07-22T03:19:42;100239.91;;;18.57;100.00
69766;BME280;57039;48.014;21.384;2023-07-22T03:20:45;100245.94;;;18.59;100.00
69766;BME280;57039;48.014;21.384;2023-07-22T03:21:48;100243.84;;;18.62;100.00
69766;BME280;57039;48.014;21.384;2023-07-22T03:22:51;100249.72;;;18.56;100.00
69766;BME280;57039;48.014;21.384;2023-07-22T03:23:54;100246.94;;;18.48;100.00
69766;BME280;57039;48.014;21.384;2023-07-22T03:24:57;100255.03;;;18.56;100.00
69766;BME280;57039;48.014;21.384;2023-07-22T03:26:01;100257.84;;;18.55;100.00
69766;BME280;57039;48.014;21.384;2023-07-22T03:27:04;100255.06;;;18.46;100.00
69766;BME280;57039;48.014;21.384;2023-07-22T03:28:07;100254.78;;;18.50;100.00
69766;BME280;57039;48.014;21.384;2023-07-22T03:29:10;100254.22;;;18.46;100.00
69766;BME280;57039;48.014;21.384;2023-07-22T03:30:15;100255.34;;;18.43;100.00
69766;BME280;57039;48.014;21.384;2023-07-22T03:31:18;100258.09;;;18.52;100.00
69766;BME280;57039;48.014;21.384;2023-07-22T03:32:21;100266.22;;;18.50;100.00
69766;BME280;57039;48.014;21.384;2023-07-22T03:33:24;100262.59;;;18.51;100.00
69766;BME280;57039;48.014;21.384;2023-07-22T03:34:27;100261.75;;;18.51;100.00
69766;BME280;57039;48.014;21.384;2023-07-22T03:35:30;100259.25;;;18.49;100.00
69766;BME280;57039;48.014;21.384;2023-07-22T03:36:33;100263.03;;;18.46;100.00
69766;BME280;57039;48.014;21.384;2023-07-22T03:37:36;100272.66;;;18.47;100.00
69766;BME280;57039;48.014;21.384;2023-07-22T03:38:39;100270.56;;;18.51;100.00
69766;BME280;57039;48.014;21.384;2023-07-22T03:39:42;100260.09;;;18.50;100.00
69766;BME280;57039;48.014;21.384;2023-07-22T03:40:45;100266.94;;;18.52;100.00
69766;BME280;57039;48.014;21.384;2023-07-22T03:41:47;100267.06;;;18.51;100.00
69766;BME280;57039;48.014;21.384;2023-07-22T03:42:50;100261.47;;;18.54;100.00
69766;BME280;57039;48.014;21.384;2023-07-22T03:43:53;100260.91;;;18.60;100.00
69766;BME280;57039;48.014;21.384;2023-07-22T03:44:56;100258.22;;;18.60;100.00
69766;BME280;57039;48.014;21.384;2023-07-22T03:45:59;100252.09;;;18.59;100.00
69766;BME280;57039;48.014;21.384;2023-07-22T03:47:02;100247.88;;;18.66;100.00
69766;BME280;57039;48.014;21.384;2023-07-22T03:48:05;100242.28;;;18.60;100.00
69766;BME280;57039;48.014;21.384;2023-07-22T03:49:08;100237.94;;;18.68;100.00
69766;BME280;57039;48.014;21.384;2023-07-22T03:50:11;100234.28;;;18.69;100.00
69766;BME280;57039;48.014;21.384;2023-07-22T03:51:14;100232.91;;;18.75;100.00
69766;BME280;57039;48.014;21.384;2023-07-22T03:52:23;100230.97;;;18.77;100.00
69766;BME280;57039;48.014;21.384;2023-07-22T03:53:26;100228.47;;;18.76;100.00
69766;BME280;57039;48.014;21.384;2023-07-22T03:54:29;100230.66;;;18.80;100.00
69766;BME280;57039;48.014;21.384;2023-07-22T03:55:32;100236.44;;;18.76;100.00
69766;BME280;57039;48.014;21.384;2023-07-22T03:56:34;100231.78;;;18.78;100.00
69766;BME280;57039;48.014;21.384;2023-07-22T03:57:37;100228.00;;;18.80;100.00
69766;BME280;57039;48.014;21.384;2023-07-22T03:58:40;100233.50;;;18.79;100.00
69766;BME280;57039;48.014;21.384;2023-07-22T03:59:42;100232.63;;;18.78;100.00
69766;BME280;57039;48.014;21.384;2023-07-22T04:00:49;100233.50;;;18.79;100.00
69766;BME280;57039;48.014;21.384;2023-07-22T04:01:53;100232.63;;;18.78;100.00
69766;BME280;57039;48.014;21.384;2023-07-22T04:02:55;100227.59;;;18.75;100.00
69766;BME280;57039;48.014;21.384;2023-07-22T04:03:58;100231.66;;;18.79;100.00
69766;BME280;57039;48.014;21.384;2023-07-22T04:05:01;100230.66;;;18.80;100.00
69766;BME280;57039;48.014;21.384;2023-07-22T04:06:04;100227.31;;;18.78;100.00
69766;BME280;57039;48.014;21.384;2023-07-22T04:07:07;100228.00;;;18.80;100.00
69766;BME280;57039;48.014;21.384;2023-07-22T04:08:10;100229.97;;;18.78;100.00
69766;BME280;57039;48.014;21.384;2023-07-22T04:09:13;100229.84;;;18.80;100.00
69766;BME280;57039;48.014;21.384;2023-07-22T04:10:16;100238.78;;;18.88;100.00
69766;BME280;57039;48.014;21.384;2023-07-22T04:11:18;100233.16;;;18.91;100.00
69766;BME280;57039;48.014;21.384;2023-07-22T04:12:21;100230.06;;;18.96;100.00
69766;BME280;57039;48.014;21.384;2023-07-22T04:13:25;100229.91;;;18.98;100.00
69766;BME280;57039;48.014;21.384;2023-07-22T04:14:29;100236.47;;;19.03;100.00
69766;BME280;57039;48.014;21.384;2023-07-22T04:15:33;100232.12;;;19.02;100.00
69766;BME280;57039;48.014;21.384;2023-07-22T04:16:36;100224.00;;;19.04;100.00
69766;BME280;57039;48.014;21.384;2023-07-22T04:17:39;100228.03;;;19.18;100.00
69766;BME280;57039;48.014;21.384;2023-07-22T04:18:42;100240.09;;;19.12;100.00
69766;BME280;57039;48.014;21.384;2023-07-22T04:19:45;100235.44;;;19.14;100.00
69766;BME280;57039;48.014;21.384;2023-07-22T04:20:55;100237.50;;;19.20;100.00
69766;BME280;57039;48.014;21.384;2023-07-22T04:21:59;100234.84;;;19.20;100.00
69766;BME280;57039;48.014;21.384;2023-07-22T04:23:06;100226.03;;;19.20;100.00
69766;BME280;57039;48.014;21.384;2023-07-22T04:24:10;100232.16;;;19.30;100.00
69766;BME280;57039;48.014;21.384;2023-07-22T04:25:13;100237.72;;;19.36;100.00
69766;BME280;57039;48.014;21.384;2023-07-22T04:26:17;100230.75;;;19.35;100.00
69766;BME280;57039;48.014;21.384;2023-07-22T04:27:19;100228.31;;;19.42;100.00
69766;BME280;57039;48.014;21.384;2023-07-22T04:28:22;100233.19;;;19.47;100.00
69766;BME280;57039;48.014;21.384;2023-07-22T04:29:26;100226.78;;;19.39;100.00
69766;BME280;57039;48.014;21.384;2023-07-22T04:30:28;100214.38;;;19.30;100.00
69766;BME280;57039;48.014;21.384;2023-07-22T04:31:33;100235.53;;;19.50;100.00
69766;BME280;57039;48.014;21.384;2023-07-22T04:32:36;100234.41;;;19.52;100.00
69766;BME280;57039;48.014;21.384;2023-07-22T04:33:39;100235.94;;;19.55;100.00
69766;BME280;57039;48.014;21.384;2023-07-22T04:34:42;100229.88;;;19.62;100.00
69766;BME280;57039;48.014;21.384;2023-07-22T04:35:44;100240.53;;;19.62;100.00
69766;BME280;57039;48.014;21.384;2023-07-22T04:36:47;100241.75;;;19.68;100.00
69766;BME280;57039;48.014;21.384;2023-07-22T04:37:50;100246.34;;;19.76;100.00
69766;BME280;57039;48.014;21.384;2023-07-22T04:38:53;100248.28;;;19.83;100.00
69766;BME280;57039;48.014;21.384;2023-07-22T04:39:55;100247.97;;;19.87;100.00
69766;BME280;57039;48.014;21.384;2023-07-22T04:40:58;100237.69;;;19.92;100.00
69766;BME280;57039;48.014;21.384;2023-07-22T04:42:02;100251.38;;;19.97;100.00
69766;BME280;57039;48.014;21.384;2023-07-22T04:43:05;100250.25;;;19.99;100.00
69766;BME280;57039;48.014;21.384;2023-07-22T04:44:08;100254.81;;;20.07;100.00
69766;BME280;57039;48.014;21.384;2023-07-22T04:45:11;100252.22;;;20.15;100.00
69766;BME280;57039;48.014;21.384;2023-07-22T04:46:14;100224.63;;;19.98;100.00
69766;BME280;57039;48.014;21.384;2023-07-22T04:47:17;100233.56;;;20.15;100.00
69766;BME280;57039;48.014;21.384;2023-07-22T04:48:21;100254.34;;;20.29;100.00
69766;BME280;57039;48.014;21.384;2023-07-22T04:49:27;100251.91;;;20.36;100.00
69766;BME280;57039;48.014;21.384;2023-07-22T04:50:29;100250.03;;;20.28;100.00
69766;BME280;57039;48.014;21.384;2023-07-22T04:51:32;100254.50;;;20.28;100.00
69766;BME280;57039;48.014;21.384;2023-07-22T04:52:35;100260.69;;;20.28;100.00
69766;BME280;57039;48.014;21.384;2023-07-22T04:53:38;100257.44;;;20.43;100.00
69766;BME280;57039;48.014;21.384;2023-07-22T04:54:41;100254.84;;;20.51;100.00
69766;BME280;57039;48.014;21.384;2023-07-22T04:55:44;100251.66;;;20.47;100.00
69766;BME280;57039;48.014;21.384;2023-07-22T04:56:47;100257.44;;;20.61;100.00
69766;BME280;57039;48.014;21.384;2023-07-22T04:57:49;100236.28;;;20.41;100.00
69766;BME280;57039;48.014;21.384;2023-07-22T04:58:53;100261.31;;;20.66;100.00
69766;BME280;57039;48.014;21.384;2023-07-22T04:59:57;100265.19;;;20.72;100.00
69766;BME280;57039;48.014;21.384;2023-07-22T05:00:59;100263.22;;;20.74;100.00
69766;BME280;57039;48.014;21.384;2023-07-22T05:02:02;100265.09;;;20.82;100.00
69766;BME280;57039;48.014;21.384;2023-07-22T05:03:05;100269.97;;;20.86;100.00
69766;BME280;57039;48.014;21.384;2023-07-22T05:04:08;100266.81;;;20.91;100.00
69766;BME280;57039;48.014;21.384;2023-07-22T05:05:12;100273.91;;;21.00;100.00
69766;BME280;57039;48.014;21.384;2023-07-22T05:06:15;100275.75;;;21.08;100.00
69766;BME280;57039;48.014;21.384;2023-07-22T05:07:17;100281.25;;;21.06;100.00
69766;BME280;57039;48.014;21.384;2023-07-22T05:08:20;100281.91;;;21.08;100.00
69766;BME280;57039;48.014;21.384;2023-07-22T05:09:23;100278.78;;;21.13;100.00
69766;BME280;57039;48.014;21.384;2023-07-22T05:10:26;100285.66;;;21.24;100.00
69766;BME280;57039;48.014;21.384;2023-07-22T05:11:31;100281.06;;;21.34;100.00
69766;BME280;57039;48.014;21.384;2023-07-22T05:12:33;100274.44;;;21.38;100.00
69766;BME280;57039;48.014;21.384;2023-07-22T05:13:36;100273.78;;;21.44;100.00
69766;BME280;57039;48.014;21.384;2023-07-22T05:14:39;100274.78;;;21.43;100.00
69766;BME280;57039;48.014;21.384;2023-07-22T05:15:42;100280.78;;;21.37;100.00
69766;BME280;57039;48.014;21.384;2023-07-22T05:16:44;100274.34;;;21.30;100.00
69766;BME280;57039;48.014;21.384;2023-07-22T05:17:47;100275.88;;;21.32;100.00
69766;BME280;57039;48.014;21.384;2023-07-22T05:18:50;100274.09;;;21.41;100.00
69766;BME280;57039;48.014;21.384;2023-07-22T05:19:53;100272.81;;;21.53;100.00
69766;BME280;57039;48.014;21.384;2023-07-22T05:20:56;100269.72;;;21.66;100.00
69766;BME280;57039;48.014;21.384;2023-07-22T05:21:58;100270.22;;;21.70;100.00
69766;BME280;57039;48.014;21.384;2023-07-22T05:23:01;100270.06;;;21.79;100.00